createdAt,value
2022-09-24T00:01:21.298Z,98294.50
2022-09-24T00:04:11.638Z,98298.06
2022-09-24T00:06:44.451Z,98305.47
2022-09-24T00:09:12.931Z,98315.75
2022-09-24T00:11:39.990Z,98306.97
2022-09-24T00:14:07.338Z,98300.56
2022-09-24T00:16:34.695Z,98300.75
2022-09-24T00:19:02.865Z,98299.72
2022-09-24T00:21:34.480Z,98292.16
2022-09-24T00:24:04.336Z,98287.88
2022-09-24T00:26:49.186Z,98291.34
2022-09-24T00:29:24.337Z,98291.84
2022-09-24T00:31:52.715Z,98277.81
2022-09-24T00:34:19.971Z,98276.09
2022-09-24T00:36:46.997Z,98264.38
2022-09-24T00:39:14.188Z,98259.00
2022-09-24T00:41:44.860Z,98260.91
2022-09-24T00:44:39.017Z,98263.63
2022-09-24T00:47:05.873Z,98263.66
2022-09-24T00:49:32.355Z,98262.06
2022-09-24T00:51:58.809Z,98255.03
2022-09-24T00:54:28.641Z,98251.75
2022-09-24T00:56:57.615Z,98249.13
2022-09-24T00:59:25.183Z,98250.28
2022-09-24T01:01:53.987Z,98241.38
2022-09-24T01:04:21.547Z,98241.59
2022-09-24T01:06:49.449Z,98239.91
2022-09-24T01:09:18.124Z,98243.66
2022-09-24T01:12:11.994Z,98232.66
2022-09-24T01:15:03.374Z,98217.09
2022-09-24T01:17:58.540Z,98232.09
2022-09-24T01:20:56.528Z,98225.66
2022-09-24T01:23:48.542Z,98220.50
2022-09-24T01:26:19.860Z,98224.88
2022-09-24T01:29:17.163Z,98226.78
2022-09-24T01:31:52.440Z,98231.91
2022-09-24T01:34:24.560Z,98230.31
2022-09-24T01:36:53.405Z,98234.09
2022-09-24T01:39:20.939Z,98238.44
2022-09-24T01:41:49.042Z,98231.06
2022-09-24T01:44:18.390Z,98223.38
2022-09-24T01:46:44.945Z,98210.25
2022-09-24T01:49:11.594Z,98193.75
2022-09-24T01:51:45.240Z,98189.22
2022-09-24T01:54:24.144Z,98189.44
2022-09-24T01:57:02.181Z,98189.44
2022-09-24T01:59:38.247Z,98190.50
2022-09-24T02:02:10.115Z,98194.56
2022-09-24T02:04:53.390Z,98193.84
2022-09-24T02:07:59.011Z,98195.88
2022-09-24T02:10:30.570Z,98189.66
2022-09-24T02:13:03.919Z,98195.69
2022-09-24T02:15:33.906Z,98191.66
2022-09-24T02:18:07.220Z,98192.97
2022-09-24T02:20:36.065Z,98178.28
2022-09-24T02:23:04.581Z,98175.00
2022-09-24T02:25:39.434Z,98169.13
2022-09-24T02:28:05.893Z,98166.88
2022-09-24T02:30:40.815Z,98165.31
2022-09-24T02:33:30.537Z,98173.06
2022-09-24T02:35:57.526Z,98179.53
2022-09-24T02:38:24.049Z,98167.50
2022-09-24T02:40:51.290Z,98168.13
2022-09-24T02:43:17.890Z,98167.91
2022-09-24T02:45:44.630Z,98171.63
2022-09-24T02:48:11.050Z,98174.03
2022-09-24T02:50:37.473Z,98185.50
2022-09-24T02:53:03.961Z,98195.78
2022-09-24T02:55:30.393Z,98185.50
2022-09-24T02:57:56.861Z,98190.91
2022-09-24T03:00:23.451Z,98195.69
2022-09-24T03:02:50.017Z,98184.94
2022-09-24T03:05:18.246Z,98188.19
2022-09-24T03:07:45.498Z,98190.59
2022-09-24T03:10:13.277Z,98195.22
2022-09-24T03:12:40.819Z,98195.28
2022-09-24T03:15:07.520Z,98200.97
2022-09-24T03:17:33.972Z,98208.03
2022-09-24T03:20:00.530Z,98204.50
2022-09-24T03:22:26.962Z,98200.78
2022-09-24T03:24:54.089Z,98202.94
2022-09-24T03:27:21.401Z,98205.16
2022-09-24T03:30:06.328Z,98200.56
2022-09-24T03:32:33.796Z,98197.84
2022-09-24T03:35:01.388Z,98207.88
2022-09-24T03:37:27.834Z,98191.91
2022-09-24T03:39:54.277Z,98184.19
2022-09-24T03:42:20.683Z,98184.38
2022-09-24T03:44:47.117Z,98178.13
2022-09-24T03:47:13.589Z,98176.75
2022-09-24T03:49:40.009Z,98167.56
2022-09-24T03:52:06.421Z,98174.44
2022-09-24T03:54:33.051Z,98176.28
2022-09-24T03:56:59.546Z,98182.81
2022-09-24T03:59:25.964Z,98183.06
2022-09-24T04:01:52.543Z,98185.53
2022-09-24T04:04:19.094Z,98182.59
2022-09-24T04:06:45.501Z,98182.09
2022-09-24T04:09:11.912Z,98177.22
2022-09-24T04:11:38.330Z,98175.31
2022-09-24T04:14:04.869Z,98177.97
2022-09-24T04:16:31.449Z,98181.53
2022-09-24T04:18:57.997Z,98178.28
2022-09-24T04:21:24.538Z,98181.28
2022-09-24T04:23:50.966Z,98174.84
2022-09-24T04:26:17.442Z,98170.50
2022-09-24T04:28:43.881Z,98171.84
2022-09-24T04:31:10.371Z,98166.69
2022-09-24T04:33:36.982Z,98165.06
2022-09-24T04:36:03.458Z,98165.63
2022-09-24T04:38:29.913Z,98171.63
2022-09-24T04:41:07.726Z,98166.75
2022-09-24T04:43:36.972Z,98171.91
2022-09-24T04:46:04.112Z,98167.25
2022-09-24T04:48:31.342Z,98176.22
2022-09-24T04:50:58.241Z,98168.31
2022-09-24T04:53:24.933Z,98169.38
2022-09-24T04:55:51.340Z,98168.13
2022-09-24T04:58:17.781Z,98171.09
2022-09-24T05:00:44.288Z,98171.06
2022-09-24T05:03:10.734Z,98170.50
2022-09-24T05:05:37.248Z,98174.53
2022-09-24T05:08:04.762Z,98169.91
2022-09-24T05:10:33.073Z,98175.88
2022-09-24T05:12:59.607Z,98166.66
2022-09-24T05:15:26.420Z,98161.84
2022-09-24T05:17:52.914Z,98167.84
2022-09-24T05:20:19.421Z,98171.69
2022-09-24T05:22:47.646Z,98165.16
2022-09-24T05:25:16.002Z,98170.38
2022-09-24T05:27:51.112Z,98172.28
2022-09-24T05:30:19.438Z,98174.47
2022-09-24T05:32:49.419Z,98177.44
2022-09-24T05:35:15.940Z,98184.72
2022-09-24T05:37:42.669Z,98181.75
2022-09-24T05:40:28.651Z,98190.44
2022-09-24T05:43:01.446Z,98187.19
2022-09-24T05:45:29.463Z,98186.13
2022-09-24T05:47:56.175Z,98193.41
2022-09-24T05:50:22.914Z,98186.38
2022-09-24T05:52:49.323Z,98179.38
2022-09-24T05:55:16.022Z,98189.09
2022-09-24T05:57:42.596Z,98184.22
2022-09-24T06:00:09.556Z,98185.03
2022-09-24T06:02:36.704Z,98191.28
2022-09-24T06:05:03.571Z,98186.13
2022-09-24T06:07:30.008Z,98185.56
2022-09-24T06:09:59.160Z,98190.69
2022-09-24T06:12:25.784Z,98191.78
2022-09-24T06:14:53.857Z,98187.47
2022-09-24T06:17:21.111Z,98187.47
2022-09-24T06:19:47.727Z,98192.06
2022-09-24T06:22:14.879Z,98195.03
2022-09-24T06:24:41.558Z,98192.88
2022-09-24T06:27:07.982Z,98194.22
2022-09-24T06:29:34.417Z,98200.44
2022-09-24T06:32:01.945Z,98208.03
2022-09-24T06:34:28.626Z,98207.19
2022-09-24T06:36:56.714Z,98208.00
2022-09-24T06:39:24.457Z,98207.72
2022-09-24T06:41:51.552Z,98215.00
2022-09-24T06:44:19.268Z,98200.97
2022-09-24T06:46:46.098Z,98208.53
2022-09-24T06:49:12.652Z,98213.41
2022-09-24T06:51:39.348Z,98210.69
2022-09-24T06:54:06.163Z,98214.50
2022-09-24T06:56:32.649Z,98214.50
2022-09-24T06:58:59.127Z,98224.16
2022-09-24T07:01:25.665Z,98213.91
2022-09-24T07:03:52.134Z,98210.41
2022-09-24T07:06:18.587Z,98215.50
2022-09-24T07:08:45.361Z,98212.00
2022-09-24T07:11:13.306Z,98218.75
2022-09-24T07:13:39.731Z,98218.22
2022-09-24T07:16:06.380Z,98218.25
2022-09-24T07:18:32.968Z,98215.56
2022-09-24T07:20:59.365Z,98221.50
2022-09-24T07:23:27.685Z,98220.41
2022-09-24T07:25:57.868Z,98222.56
2022-09-24T07:28:24.453Z,98220.41
2022-09-24T07:30:58.977Z,98219.59
2022-09-24T07:33:25.448Z,98214.44
2022-09-24T07:35:51.867Z,98218.75
2022-09-24T07:38:18.369Z,98217.91
2022-09-24T07:40:45.068Z,98224.66
2022-09-24T07:43:14.162Z,98226.81
2022-09-24T07:45:42.050Z,98227.06
2022-09-24T07:48:10.497Z,98230.56
2022-09-24T07:50:41.308Z,98222.38
2022-09-24T07:53:12.563Z,98219.59
2022-09-24T07:55:40.770Z,98220.69
2022-09-24T07:58:14.591Z,98222.34
2022-09-24T08:00:41.574Z,98219.34
2022-09-24T08:03:08.213Z,98220.09
2022-09-24T08:05:34.675Z,98220.88
2022-09-24T08:08:01.382Z,98221.97
2022-09-24T08:10:28.652Z,98222.75
2022-09-24T08:12:57.014Z,98228.22
2022-09-24T08:15:23.893Z,98237.13
2022-09-24T08:17:50.758Z,98239.00
2022-09-24T08:20:21.990Z,98238.75
2022-09-24T08:22:48.458Z,98239.56
2022-09-24T08:25:14.890Z,98242.59
2022-09-24T08:27:41.377Z,98234.22
2022-09-24T08:30:08.742Z,98248.56
2022-09-24T08:32:35.205Z,98241.25
2022-09-24T08:35:01.813Z,98246.06
2022-09-24T08:37:29.031Z,98244.47
2022-09-24T08:39:55.877Z,98236.28
2022-09-24T08:42:33.112Z,98244.41
2022-09-24T08:45:19.563Z,98244.94
2022-09-24T08:48:01.490Z,98253.56
2022-09-24T08:50:31.140Z,98246.78
2022-09-24T08:53:03.240Z,98251.16
2022-09-24T08:56:00.665Z,98258.22
2022-09-24T08:58:50.540Z,98254.97
2022-09-24T09:01:42.973Z,98258.47
2022-09-24T09:04:32.555Z,98257.13
2022-09-24T09:07:09.803Z,98253.56
2022-09-24T09:09:43.366Z,98254.09
2022-09-24T09:12:25.265Z,98251.88
2022-09-24T09:15:07.002Z,98255.13
2022-09-24T09:17:45.825Z,98259.19
2022-09-24T09:20:25.537Z,98260.53
2022-09-24T09:22:53.433Z,98268.09
2022-09-24T09:25:29.842Z,98269.72
2022-09-24T09:28:16.698Z,98270.88
2022-09-24T09:30:55.699Z,98267.63
2022-09-24T09:33:48.377Z,98268.72
2022-09-24T09:36:43.299Z,98271.09
2022-09-24T09:39:21.676Z,98266.50
2022-09-24T09:42:04.095Z,98270.59
2022-09-24T09:44:39.046Z,98268.94
2022-09-24T09:47:43.079Z,98270.19
2022-09-24T09:50:14.801Z,98257.72
2022-09-24T09:52:41.376Z,98265.31
2022-09-24T09:55:08.462Z,98274.03
2022-09-24T09:57:38.619Z,98265.66
2022-09-24T10:00:05.649Z,98260.47
2022-09-24T10:02:35.221Z,98256.09
2022-09-24T10:05:03.767Z,98266.91
2022-09-24T10:07:31.666Z,98266.91
2022-09-24T10:10:00.247Z,98256.03
2022-09-24T10:12:27.864Z,98255.47
2022-09-24T10:15:02.753Z,98248.94
2022-09-24T10:17:39.570Z,98245.66
2022-09-24T10:20:28.663Z,98241.31
2022-09-24T10:22:57.441Z,98246.16
2022-09-24T10:25:27.310Z,98249.38
2022-09-24T10:28:16.753Z,98245.16
2022-09-24T10:30:58.606Z,98239.91
2022-09-24T10:33:26.058Z,98232.06
2022-09-24T10:36:04.373Z,98221.47
2022-09-24T10:38:31.925Z,98224.63
2022-09-24T10:40:59.292Z,98226.53
2022-09-24T10:43:26.274Z,98224.38
2022-09-24T10:46:07.642Z,98221.41
2022-09-24T10:48:58.268Z,98226.47
2022-09-24T10:51:47.275Z,98221.28
2022-09-24T10:54:48.839Z,98222.81
2022-09-24T10:57:26.942Z,98217.28
2022-09-24T11:00:19.883Z,98213.38
2022-09-24T11:03:04.650Z,98222.03
2022-09-24T11:05:57.107Z,98214.97
2022-09-24T11:08:30.441Z,98218.00
2022-09-24T11:11:06.142Z,98216.25
2022-09-24T11:13:59.817Z,98222.25
2022-09-24T11:16:32.701Z,98212.13
2022-09-24T11:19:22.362Z,98220.16
2022-09-24T11:22:15.538Z,98217.44
2022-09-24T11:25:02.300Z,98208.66
2022-09-24T11:27:38.866Z,98209.38
2022-09-24T11:30:24.971Z,98200.28
2022-09-24T11:33:03.321Z,98195.50
2022-09-24T11:36:00.787Z,98193.66
2022-09-24T11:38:59.864Z,98181.63
2022-09-24T11:41:35.025Z,98178.72
2022-09-24T11:44:11.260Z,98182.66
2022-09-24T11:46:51.098Z,98180.31
2022-09-24T11:49:33.425Z,98175.00
2022-09-24T11:52:47.462Z,98173.53
2022-09-24T11:55:40.117Z,98152.25
2022-09-24T11:58:18.028Z,98154.41
2022-09-24T12:01:05.199Z,98148.03
2022-09-24T12:03:48.341Z,98153.50
2022-09-24T12:06:21.621Z,98145.41
2022-09-24T12:08:55.893Z,98146.25
2022-09-24T12:11:31.595Z,98144.38
2022-09-24T12:14:15.557Z,98138.22
2022-09-24T12:16:44.411Z,98144.16
2022-09-24T12:19:28.065Z,98146.16
2022-09-24T12:21:56.005Z,98147.13
2022-09-24T12:24:32.928Z,98146.44
2022-09-24T12:27:04.750Z,98139.16
2022-09-24T12:30:17.834Z,98133.84
2022-09-24T12:33:05.357Z,98135.06
2022-09-24T12:35:58.886Z,98132.81
2022-09-24T12:38:40.807Z,98127.47
2022-09-24T12:41:26.114Z,98126.44
2022-09-24T12:44:02.812Z,98125.94
2022-09-24T12:46:35.417Z,98116.78
2022-09-24T12:49:02.257Z,98118.19
2022-09-24T12:51:38.052Z,98121.69
2022-09-24T12:54:24.332Z,98123.38
2022-09-24T12:56:51.606Z,98115.00
2022-09-24T12:59:28.730Z,98118.34
2022-09-24T13:01:55.637Z,98122.06
2022-09-24T13:04:26.972Z,98132.94
2022-09-24T13:06:58.202Z,98122.88
2022-09-24T13:09:35.266Z,98118.25
2022-09-24T13:12:22.378Z,98113.59
2022-09-24T13:15:28.049Z,98124.97
2022-09-24T13:18:06.909Z,98130.72
2022-09-24T13:20:34.827Z,98124.63
2022-09-24T13:23:20.288Z,98118.81
2022-09-24T13:25:57.930Z,98113.75
2022-09-24T13:28:35.761Z,98121.72
2022-09-24T13:31:23.725Z,98127.44
2022-09-24T13:33:55.041Z,98128.66
2022-09-24T13:36:53.903Z,98126.31
2022-09-24T13:39:20.254Z,98127.22
2022-09-24T13:42:09.163Z,98119.63
2022-09-24T13:44:39.412Z,98127.75
2022-09-24T13:47:12.907Z,98115.94
2022-09-24T13:49:42.994Z,98112.66
2022-09-24T13:52:28.260Z,98113.41
2022-09-24T13:54:59.137Z,98119.94
2022-09-24T13:57:28.169Z,98114.78
2022-09-24T14:00:15.526Z,98110.69
2022-09-24T14:02:52.815Z,98111.78
2022-09-24T14:05:20.129Z,98114.81
2022-09-24T14:08:04.628Z,98111.47
2022-09-24T14:10:32.461Z,98106.47
2022-09-24T14:13:21.693Z,98105.81
2022-09-24T14:15:58.965Z,98103.63
2022-09-24T14:18:27.539Z,98095.75
2022-09-24T14:21:10.394Z,98104.72
2022-09-24T14:24:09.137Z,98097.72
2022-09-24T14:26:49.514Z,98094.63
2022-09-24T14:29:27.434Z,98088.50
2022-09-24T14:32:03.160Z,98087.19
2022-09-24T14:34:38.930Z,98093.81
2022-09-24T14:37:10.763Z,98086.19
2022-09-24T14:39:41.854Z,98084.31
2022-09-24T14:42:23.104Z,98091.88
2022-09-24T14:44:50.635Z,98082.81
2022-09-24T14:47:29.013Z,98084.19
2022-09-24T14:49:56.042Z,98084.88
2022-09-24T14:52:37.569Z,98079.72
2022-09-24T14:55:19.281Z,98087.28
2022-09-24T14:57:49.624Z,98087.72
2022-09-24T15:00:30.499Z,98086.09
2022-09-24T15:03:04.043Z,98088.75
2022-09-24T15:05:31.051Z,98091.25
2022-09-24T15:08:27.415Z,98082.00
2022-09-24T15:11:03.669Z,98086.63
2022-09-24T15:13:35.975Z,98078.69
2022-09-24T15:16:05.211Z,98080.69
2022-09-24T15:18:32.707Z,98076.38
2022-09-24T15:20:59.806Z,98092.84
2022-09-24T15:23:26.244Z,98096.50
2022-09-24T15:25:52.785Z,98113.94
2022-09-24T15:28:20.930Z,98105.00
2022-09-24T15:30:47.428Z,98093.00
2022-09-24T15:33:14.159Z,98090.56
2022-09-24T15:35:40.978Z,98097.16
2022-09-24T15:38:18.034Z,98097.16
2022-09-24T15:40:44.556Z,98100.63
2022-09-24T15:43:23.193Z,98082.00
2022-09-24T15:45:50.380Z,98076.19
2022-09-24T15:48:17.022Z,98073.03
2022-09-24T15:50:45.755Z,98085.28
2022-09-24T15:53:24.838Z,98079.91
2022-09-24T15:55:55.016Z,98080.50
2022-09-24T15:58:22.471Z,98073.47
2022-09-24T16:00:49.585Z,98090.53
2022-09-24T16:03:36.605Z,98083.25
2022-09-24T16:06:03.390Z,98083.84
2022-09-24T16:08:29.803Z,98083.28
2022-09-24T16:10:56.241Z,98085.50
2022-09-24T16:13:23.582Z,98081.59
2022-09-24T16:15:50.116Z,98081.25
2022-09-24T16:18:22.172Z,98083.59
2022-09-24T16:20:48.678Z,98078.53
2022-09-24T16:23:16.811Z,98065.66
2022-09-24T16:25:55.850Z,98065.19
2022-09-24T16:28:22.441Z,98068.66
2022-09-24T16:30:49.018Z,98065.47
2022-09-24T16:33:15.590Z,98061.47
2022-09-24T16:35:42.014Z,98060.41
2022-09-24T16:38:08.511Z,98064.84
2022-09-24T16:40:35.009Z,98060.00
2022-09-24T16:43:01.525Z,98061.63
2022-09-24T16:45:28.065Z,98069.75
2022-09-24T16:47:54.444Z,98072.53
2022-09-24T16:50:23.583Z,98075.34
2022-09-24T16:52:52.325Z,98080.78
2022-09-24T16:55:18.727Z,98077.09
2022-09-24T16:57:45.139Z,98087.47
2022-09-24T17:00:12.243Z,98089.19
2022-09-24T17:02:38.967Z,98088.44
2022-09-24T17:05:06.000Z,98092.53
2022-09-24T17:07:32.892Z,98088.28
2022-09-24T17:10:16.042Z,98090.97
2022-09-24T17:12:49.274Z,98087.19
2022-09-24T17:15:20.481Z,98080.16
2022-09-24T17:17:50.338Z,98086.88
2022-09-24T17:20:18.543Z,98077.38
2022-09-24T17:22:45.614Z,98077.44
2022-09-24T17:25:12.067Z,98080.66
2022-09-24T17:27:40.033Z,98079.19
2022-09-24T17:30:07.456Z,98080.22
2022-09-24T17:32:34.021Z,98090.03
2022-09-24T17:35:00.456Z,98096.16
2022-09-24T17:37:27.529Z,98093.38
2022-09-24T17:39:54.051Z,98103.09
2022-09-24T17:42:20.473Z,98102.69
2022-09-24T17:44:46.904Z,98100.25
2022-09-24T17:47:13.351Z,98098.56
2022-09-24T17:49:39.840Z,98096.84
2022-09-24T17:52:06.805Z,98098.50
2022-09-24T17:54:33.320Z,98098.50
2022-09-24T17:57:01.963Z,98094.75
2022-09-24T17:59:28.506Z,98105.13
2022-09-24T18:01:55.097Z,98118.31
2022-09-24T18:04:25.628Z,98112.72
2022-09-24T18:06:52.041Z,98117.28
2022-09-24T18:09:19.884Z,98118.16
2022-09-24T18:11:49.317Z,98115.47
2022-09-24T18:14:18.729Z,98126.28
2022-09-24T18:16:45.511Z,98123.03
2022-09-24T18:19:16.287Z,98123.38
2022-09-24T18:21:43.379Z,98127.97
2022-09-24T18:24:10.498Z,98126.31
2022-09-24T18:26:39.882Z,98131.22
2022-09-24T18:29:11.595Z,98125.31
2022-09-24T18:31:38.669Z,98132.34
2022-09-24T18:34:07.711Z,98136.69
2022-09-24T18:36:36.913Z,98139.88
2022-09-24T18:39:05.847Z,98140.97
2022-09-24T18:41:32.753Z,98148.88
2022-09-24T18:43:59.540Z,98145.91
2022-09-24T18:46:28.825Z,98146.47
2022-09-24T18:48:56.575Z,98139.69
2022-09-24T18:51:34.657Z,98142.88
2022-09-24T18:54:04.038Z,98144.53
2022-09-24T18:56:31.642Z,98147.25
2022-09-24T18:59:00.259Z,98144.03
2022-09-24T19:01:27.657Z,98150.50
2022-09-24T19:03:55.534Z,98144.31
2022-09-24T19:06:22.310Z,98144.28
2022-09-24T19:08:49.126Z,98152.94
2022-09-24T19:11:16.256Z,98151.34
2022-09-24T19:13:47.162Z,98151.34
2022-09-24T19:16:14.736Z,98153.50
2022-09-24T19:18:41.660Z,98151.34
2022-09-24T19:21:10.499Z,98144.84
2022-09-24T19:23:48.853Z,98151.59
2022-09-24T19:26:20.485Z,98150.25
2022-09-24T19:28:50.880Z,98146.50
2022-09-24T19:31:24.175Z,98160.22
2022-09-24T19:33:52.665Z,98151.31
2022-09-24T19:36:20.162Z,98155.66
2022-09-24T19:38:47.488Z,98155.91
2022-09-24T19:41:18.222Z,98152.91
2022-09-24T19:43:45.206Z,98155.91
2022-09-24T19:46:17.001Z,98158.91
2022-09-24T19:48:46.030Z,98147.56
2022-09-24T19:51:15.205Z,98144.31
2022-09-24T19:53:42.482Z,98142.16
2022-09-24T19:56:11.114Z,98127.56
2022-09-24T19:58:37.540Z,98130.28
2022-09-24T20:01:06.242Z,98127.31
2022-09-24T20:03:34.327Z,98139.97
2022-09-24T20:06:07.431Z,98131.34
2022-09-24T20:08:33.835Z,98138.09
2022-09-24T20:11:09.340Z,98144.28
2022-09-24T20:13:36.250Z,98147.00
2022-09-24T20:16:04.650Z,98140.53
2022-09-24T20:18:33.046Z,98144.25
2022-09-24T20:21:04.308Z,98147.00
2022-09-24T20:23:30.862Z,98147.50
2022-09-24T20:26:16.214Z,98156.38
2022-09-24T20:28:42.926Z,98152.88
2022-09-24T20:31:10.921Z,98151.25
2022-09-24T20:33:40.248Z,98156.69
2022-09-24T20:36:14.684Z,98156.91
2022-09-24T20:38:44.251Z,98148.53
2022-09-24T20:41:13.888Z,98154.50
2022-09-24T20:43:43.478Z,98150.16
2022-09-24T20:46:14.161Z,98146.13
2022-09-24T20:48:40.651Z,98151.72
2022-09-24T20:51:11.737Z,98140.41
2022-09-24T20:53:38.537Z,98140.44
2022-09-24T20:56:06.015Z,98137.19
2022-09-24T20:58:33.118Z,98148.00
2022-09-24T21:01:00.136Z,98151.53
2022-09-24T21:03:43.203Z,98150.19
2022-09-24T21:06:11.797Z,98148.56
2022-09-24T21:08:41.410Z,98150.75
2022-09-24T21:11:16.069Z,98150.50
2022-09-24T21:13:44.998Z,98146.19
2022-09-24T21:16:11.990Z,98150.78
2022-09-24T21:18:40.939Z,98147.84
2022-09-24T21:21:13.195Z,98145.94
2022-09-24T21:23:40.021Z,98144.03
2022-09-24T21:26:21.586Z,98148.88
2022-09-24T21:28:52.739Z,98144.84
2022-09-24T21:31:22.322Z,98146.44
2022-09-24T21:33:52.562Z,98149.16
2022-09-24T21:36:20.928Z,98144.25
2022-09-24T21:39:01.712Z,98148.28
2022-09-24T21:41:37.390Z,98149.09
2022-09-24T21:44:05.999Z,98155.34
2022-09-24T21:46:33.671Z,98151.28
2022-09-24T21:49:01.342Z,98163.38
2022-09-24T21:51:30.108Z,98152.00
2022-09-24T21:54:01.852Z,98160.94
2022-09-24T21:56:29.696Z,98163.06
2022-09-24T21:58:56.760Z,98163.06
2022-09-24T22:01:33.987Z,98177.56
2022-09-24T22:04:07.356Z,98173.25
2022-09-24T22:06:33.668Z,98172.75
2022-09-24T22:09:05.628Z,98167.88
2022-09-24T22:11:32.470Z,98162.44
2022-09-24T22:14:02.423Z,98158.69
2022-09-24T22:16:31.099Z,98160.06
2022-09-24T22:18:58.739Z,98156.28
2022-09-24T22:21:25.276Z,98157.09
2022-09-24T22:23:51.741Z,98160.09
2022-09-24T22:26:18.682Z,98159.03
2022-09-24T22:28:45.438Z,98165.50
2022-09-24T22:31:15.298Z,98165.72
2022-09-24T22:34:00.096Z,98167.31
2022-09-24T22:36:31.201Z,98158.16
2022-09-24T22:38:59.514Z,98157.63
2022-09-24T22:41:28.702Z,98147.91
2022-09-24T22:43:56.963Z,98141.47
2022-09-24T22:46:27.431Z,98146.31
2022-09-24T22:48:55.436Z,98143.66
2022-09-24T22:51:22.569Z,98135.53
2022-09-24T22:53:49.103Z,98129.38
2022-09-24T22:56:18.676Z,98126.69
2022-09-24T22:58:51.418Z,98122.09
2022-09-24T23:01:25.017Z,98123.16
2022-09-24T23:03:53.237Z,98111.84
2022-09-24T23:06:20.884Z,98122.63
2022-09-24T23:08:48.011Z,98125.31
2022-09-24T23:11:15.708Z,98132.84
2022-09-24T23:13:44.378Z,98132.03
2022-09-24T23:16:12.511Z,98131.19
2022-09-24T23:18:39.973Z,98140.88
2022-09-24T23:21:15.847Z,98127.69
2022-09-24T23:23:43.518Z,98136.63
2022-09-24T23:26:16.211Z,98135.84
2022-09-24T23:28:43.744Z,98138.81
2022-09-24T23:31:13.422Z,98135.00
2022-09-24T23:33:41.394Z,98137.16
2022-09-24T23:36:09.938Z,98143.09
2022-09-24T23:38:36.616Z,98138.53
2022-09-24T23:41:05.331Z,98132.53
2022-09-24T23:43:32.708Z,98133.31
2022-09-24T23:45:59.304Z,98144.38
2022-09-24T23:48:26.252Z,98145.72
2022-09-24T23:50:52.737Z,98149.03
2022-09-24T23:53:19.540Z,98140.94
2022-09-24T23:55:47.907Z,98134.91
2022-09-24T23:58:15.860Z,98147.00
